createdAt,value
2022-08-30T00:00:54.795Z,5.10
2022-08-30T00:05:59.837Z,5.43
2022-08-30T00:11:10.092Z,5.60
2022-08-30T00:16:16.213Z,6.10
2022-08-30T00:21:21.526Z,5.67
2022-08-30T00:26:29.097Z,6.03
2022-08-30T00:31:34.113Z,6.30
2022-08-30T00:36:39.222Z,5.90
2022-08-30T00:41:46.946Z,6.13
2022-08-30T00:46:51.924Z,6.90
2022-08-30T00:51:57.180Z,7.40
2022-08-30T00:57:05.253Z,6.30
2022-08-30T01:02:10.583Z,7.60
2022-08-30T01:07:17.023Z,6.13
2022-08-30T01:12:24.514Z,6.80
2022-08-30T01:17:30.169Z,6.40
2022-08-30T01:22:43.696Z,7.13
2022-08-30T01:28:01.689Z,6.87
2022-08-30T01:33:08.585Z,6.80
2022-08-30T01:38:15.339Z,6.00
2022-08-30T01:43:23.005Z,6.80
2022-08-30T01:48:31.173Z,6.17
2022-08-30T01:53:36.348Z,6.40
2022-08-30T01:58:44.580Z,6.30
2022-08-30T02:03:50.161Z,7.13
2022-08-30T02:08:55.404Z,5.87
2022-08-30T02:14:02.981Z,6.80
2022-08-30T02:19:08.027Z,7.10
2022-08-30T02:24:12.931Z,6.40
2022-08-30T02:29:20.612Z,5.87
2022-08-30T02:34:25.635Z,6.37
2022-08-30T02:39:30.855Z,6.70
2022-08-30T02:44:38.547Z,6.33
2022-08-30T02:49:43.683Z,5.40
2022-08-30T02:54:49.309Z,7.07
2022-08-30T02:59:56.980Z,6.17
2022-08-30T03:05:01.958Z,6.87
2022-08-30T03:10:07.390Z,5.97
2022-08-30T03:15:16.799Z,6.50
2022-08-30T03:20:22.723Z,6.60
2022-08-30T03:25:27.965Z,5.97
2022-08-30T03:30:36.741Z,6.53
2022-08-30T03:35:41.623Z,6.10
2022-08-30T03:40:47.194Z,6.23
2022-08-30T03:45:54.873Z,6.00
2022-08-30T03:51:00.482Z,6.43
2022-08-30T03:56:06.139Z,6.60
2022-08-30T04:01:13.912Z,6.77
2022-08-30T04:06:19.588Z,5.93
2022-08-30T04:11:24.571Z,6.40
2022-08-30T04:16:32.199Z,6.73
2022-08-30T04:21:42.802Z,6.47
2022-08-30T04:26:48.234Z,6.97
2022-08-30T04:31:55.814Z,6.20
2022-08-30T04:37:00.768Z,7.00
2022-08-30T04:42:07.194Z,7.30
2022-08-30T04:47:14.783Z,6.13
2022-08-30T04:52:19.750Z,6.23
2022-08-30T04:57:24.881Z,5.53
2022-08-30T05:02:32.971Z,6.07
2022-08-30T05:07:38.801Z,5.73
2022-08-30T05:12:46.097Z,5.20
2022-08-30T05:17:55.085Z,5.77
2022-08-30T05:23:00.601Z,5.60
2022-08-30T05:28:06.472Z,5.37
2022-08-30T05:33:14.070Z,5.80
2022-08-30T05:38:19.414Z,5.33
2022-08-30T05:43:26.886Z,5.57
2022-08-30T05:48:41.443Z,5.33
2022-08-30T05:53:48.023Z,5.40
2022-08-30T05:58:54.547Z,5.40
2022-08-30T06:04:05.926Z,5.10
2022-08-30T06:09:21.489Z,5.63
2022-08-30T06:14:29.553Z,5.73
2022-08-30T06:19:56.038Z,4.93
2022-08-30T06:25:01.711Z,4.70
2022-08-30T06:30:11.150Z,4.70
2022-08-30T06:35:19.653Z,5.57
2022-08-30T06:40:25.407Z,4.40
2022-08-30T06:45:34.876Z,5.10
2022-08-30T06:50:43.806Z,4.80
2022-08-30T06:55:49.384Z,4.95
2022-08-30T07:00:55.366Z,4.57
2022-08-30T07:06:06.231Z,4.25
2022-08-30T07:11:13.071Z,3.90
2022-08-30T07:16:19.754Z,3.20
2022-08-30T07:21:32.555Z,4.50
2022-08-30T07:26:43.535Z,3.60
2022-08-30T07:31:48.988Z,3.60
2022-08-30T07:36:59.293Z,4.13
2022-08-30T07:42:04.459Z,3.67
2022-08-30T07:47:10.157Z,4.07
2022-08-30T07:52:17.903Z,3.92
2022-08-30T07:57:26.174Z,4.32
2022-08-30T08:02:33.198Z,4.05
2022-08-30T08:07:40.991Z,3.30
2022-08-30T08:12:48.338Z,3.75
2022-08-30T08:17:53.353Z,3.50
2022-08-30T08:23:02.321Z,3.83
2022-08-30T08:28:07.748Z,3.75
2022-08-30T08:33:13.389Z,3.50
2022-08-30T08:38:24.371Z,3.67
2022-08-30T08:43:30.799Z,4.00
2022-08-30T08:48:59.478Z,4.32
2022-08-30T08:54:14.595Z,4.30
2022-08-30T08:59:21.897Z,4.40
2022-08-30T09:04:33.853Z,4.60
2022-08-30T09:09:43.876Z,4.38
2022-08-30T09:20:28.377Z,4.18
2022-08-30T09:25:52.609Z,4.28
2022-08-30T09:31:08.850Z,4.65
2022-08-30T09:36:24.547Z,3.65
2022-08-30T09:41:41.537Z,3.85
2022-08-30T09:46:53.513Z,3.78
2022-08-30T09:52:10.821Z,3.30
2022-08-30T09:57:34.005Z,3.38
2022-08-30T10:02:52.952Z,4.47
2022-08-30T10:08:07.165Z,3.10
2022-08-30T10:13:39.911Z,2.72
2022-08-30T10:18:57.260Z,2.53
2022-08-30T10:24:11.360Z,2.38
2022-08-30T10:29:28.852Z,2.65
2022-08-30T10:34:43.443Z,2.63
2022-08-30T10:39:53.217Z,1.90
2022-08-30T10:45:10.739Z,2.60
2022-08-30T10:50:21.836Z,2.85
2022-08-30T10:55:35.542Z,2.90
2022-08-30T11:00:56.164Z,3.55
2022-08-30T11:06:16.244Z,3.35
2022-08-30T11:11:42.700Z,2.60
2022-08-30T11:16:54.959Z,2.17
2022-08-30T11:22:16.798Z,2.92
2022-08-30T11:27:45.047Z,2.67
2022-08-30T11:33:30.138Z,2.60
2022-08-30T11:39:13.411Z,2.53
2022-08-30T11:44:35.710Z,2.65
2022-08-30T11:50:01.173Z,2.75
2022-08-30T11:55:30.108Z,2.63
2022-08-30T12:00:40.811Z,2.88
2022-08-30T12:06:04.737Z,2.78
2022-08-30T12:11:31.562Z,3.13
2022-08-30T12:16:58.943Z,3.53
2022-08-30T12:22:07.325Z,3.28
2022-08-30T12:27:27.417Z,3.58
2022-08-30T12:32:47.661Z,3.60
2022-08-30T12:38:02.447Z,3.00
2022-08-30T12:43:21.071Z,2.83
2022-08-30T12:48:29.942Z,3.07
2022-08-30T12:53:41.849Z,2.50
2022-08-30T12:58:50.888Z,2.77
2022-08-30T13:04:06.587Z,2.33
2022-08-30T13:09:12.161Z,2.57
2022-08-30T13:14:34.900Z,2.30
2022-08-30T13:19:45.164Z,2.10
2022-08-30T13:24:51.161Z,2.00
2022-08-30T13:29:58.171Z,2.47
2022-08-30T13:35:07.849Z,2.20
2022-08-30T13:40:18.613Z,2.27
2022-08-30T13:45:41.446Z,2.47
2022-08-30T13:50:51.339Z,2.13
2022-08-30T13:55:56.630Z,2.37
2022-08-30T14:01:02.405Z,1.90
2022-08-30T14:06:32.383Z,1.90
2022-08-30T14:11:37.698Z,2.35
2022-08-30T14:16:44.788Z,2.30
2022-08-30T14:21:52.407Z,2.20
2022-08-30T14:26:57.227Z,2.20
2022-08-30T14:32:02.349Z,1.98
2022-08-30T14:37:09.931Z,2.20
2022-08-30T14:42:18.961Z,2.13
2022-08-30T14:47:29.421Z,1.90
2022-08-30T14:52:37.892Z,2.17
2022-08-30T14:57:43.344Z,1.80
2022-08-30T15:02:49.492Z,2.30
2022-08-30T15:07:57.204Z,1.93
2022-08-30T15:13:04.768Z,2.23
2022-08-30T15:18:10.023Z,2.93
2022-08-30T15:23:22.848Z,2.30
2022-08-30T15:28:30.241Z,2.40
2022-08-30T15:33:35.316Z,2.93
2022-08-30T15:38:46.636Z,2.90
2022-08-30T15:43:54.236Z,2.87
2022-08-30T15:49:03.527Z,2.10
2022-08-30T15:54:13.049Z,2.50
2022-08-30T15:59:19.395Z,2.73
2022-08-30T16:04:24.974Z,2.53
2022-08-30T16:09:33.433Z,2.65
2022-08-30T16:14:38.439Z,2.70
2022-08-30T16:19:43.376Z,2.57
2022-08-30T16:24:50.919Z,2.50
2022-08-30T16:29:56.036Z,2.47
2022-08-30T16:35:00.881Z,2.60
2022-08-30T16:40:09.876Z,2.73
2022-08-30T16:45:16.030Z,2.73
2022-08-30T16:50:23.379Z,2.00
2022-08-30T16:55:31.221Z,2.27
2022-08-30T17:00:37.094Z,2.57
2022-08-30T17:05:44.862Z,2.70
2022-08-30T17:10:54.701Z,2.07
2022-08-30T17:16:02.880Z,2.27
2022-08-30T17:21:09.230Z,2.50
2022-08-30T17:26:17.219Z,2.77
2022-08-30T17:31:22.322Z,2.97
2022-08-30T17:36:28.666Z,2.60
2022-08-30T17:41:36.176Z,2.43
2022-08-30T17:46:41.728Z,2.47
2022-08-30T17:51:47.642Z,2.60
2022-08-30T17:56:55.853Z,2.87
2022-08-30T18:02:00.895Z,4.40
2022-08-30T18:07:06.464Z,3.60
2022-08-30T18:12:14.967Z,3.60
2022-08-30T18:17:20.236Z,3.10
2022-08-30T18:22:25.193Z,3.30
2022-08-30T18:27:32.848Z,4.13
2022-08-30T18:32:44.140Z,3.30
2022-08-30T18:37:49.247Z,3.60
2022-08-30T18:42:56.874Z,3.97
2022-08-30T18:48:02.000Z,3.63
2022-08-30T18:53:08.883Z,3.30
2022-08-30T18:58:20.403Z,3.03
2022-08-30T19:03:27.858Z,3.80
2022-08-30T19:08:39.130Z,3.37
2022-08-30T19:13:46.987Z,3.27
2022-08-30T19:18:51.927Z,3.63
2022-08-30T19:23:56.926Z,3.47
2022-08-30T19:29:05.505Z,3.97
2022-08-30T19:34:10.645Z,4.23
2022-08-30T19:39:15.652Z,4.23
2022-08-30T19:44:25.066Z,3.83
2022-08-30T19:49:29.998Z,4.60
2022-08-30T19:54:36.709Z,4.27
2022-08-30T19:59:46.653Z,4.53
2022-08-30T20:04:52.270Z,4.30
2022-08-30T20:09:57.276Z,4.00
2022-08-30T20:15:09.524Z,4.10
2022-08-30T20:20:25.103Z,3.30
2022-08-30T20:25:31.015Z,3.70
2022-08-30T20:30:39.416Z,3.00
2022-08-30T20:35:49.089Z,2.90
2022-08-30T20:40:57.775Z,2.57
2022-08-30T20:46:10.121Z,3.07
2022-08-30T20:51:18.176Z,2.43
2022-08-30T20:56:25.758Z,3.00
2022-08-30T21:01:33.624Z,2.50
2022-08-30T21:06:38.854Z,2.40
2022-08-30T21:11:44.842Z,3.10
2022-08-30T21:16:52.820Z,2.70
2022-08-30T21:21:57.882Z,2.43
2022-08-30T21:27:02.907Z,2.30
2022-08-30T21:32:10.556Z,2.40
2022-08-30T21:37:15.574Z,3.03
2022-08-30T21:42:20.829Z,2.80
2022-08-30T21:47:28.332Z,2.57
2022-08-30T21:52:33.782Z,2.40
2022-08-30T21:57:38.802Z,2.37
2022-08-30T22:02:46.356Z,2.40
2022-08-30T22:07:54.607Z,2.50
2022-08-30T22:12:59.581Z,2.43
2022-08-30T22:18:07.776Z,2.30
2022-08-30T22:23:15.779Z,2.40
2022-08-30T22:28:24.880Z,2.63
2022-08-30T22:33:33.207Z,2.33
2022-08-30T22:38:39.143Z,2.40
2022-08-30T22:43:44.393Z,2.17
2022-08-30T22:48:52.866Z,1.90
2022-08-30T22:53:57.957Z,2.63
2022-08-30T22:59:03.279Z,2.10
2022-08-30T23:04:11.840Z,2.30
2022-08-30T23:09:16.779Z,2.70
2022-08-30T23:14:21.771Z,2.67
2022-08-30T23:19:29.832Z,2.30
2022-08-30T23:24:48.986Z,2.67
2022-08-30T23:30:06.692Z,2.40
2022-08-30T23:35:29.320Z,2.77
2022-08-30T23:40:46.980Z,3.03
2022-08-30T23:46:04.392Z,2.90
2022-08-30T23:51:24.653Z,2.90
2022-08-30T23:56:41.996Z,2.80
